Time;durP1;ratioP1;P1;durP2;ratioP2;P2;SDS_P1;SDS_P2;PMS_P1;PMS_P2;Temp;Humidity;BMP_temperature;BMP_pressure;BME280_temperature;BME280_humidity;BME280_pressure;Samples;Min_cycle;Max_cycle;Signal;HPM_P1;HPM_P2
2022/03/16 00:01:43;;;;;;;;;;;;;;;8.75;100.00;98476.97;5120156;28;19999;-59
2022/03/16 00:04:09;;;;;;;;;;;;;;;8.74;100.00;98492.16;5122886;28;19924;-60
2022/03/16 00:06:36;;;;;;;;;;;;;;;8.78;100.00;98489.81;5123420;28;19986;-60
2022/03/16 00:09:02;;;;;;;;;;;;;;;8.75;100.00;98487.63;5120939;28;19959;-60
2022/03/16 00:11:30;;;;;;;;;;;;;;;8.78;100.00;98500.47;5119629;28;19936;-60
2022/03/16 00:13:56;;;;;;;;;;;;;;;8.76;100.00;98495.38;5121208;28;19996;-60
2022/03/16 00:16:23;;;;;;;;;;;;;;;8.81;100.00;98502.66;5123173;28;19930;-60
2022/03/16 00:18:49;;;;;;;;;;;;;;;8.71;100.00;98511.25;5123125;28;19940;-60
2022/03/16 00:21:15;;;;;;;;;;;;;;;8.77;100.00;98501.50;5119988;28;19924;-61
2022/03/16 00:23:42;;;;;;;;;;;;;;;8.81;100.00;98508.81;5119640;28;20027;-61
2022/03/16 00:26:08;;;;;;;;;;;;;;;8.75;100.00;98503.63;5122385;28;20003;-59
2022/03/16 00:28:36;;;;;;;;;;;;;;;8.77;100.00;98501.50;5123086;28;19998;-59
2022/03/16 00:31:03;;;;;;;;;;;;;;;8.70;100.00;98500.84;5102918;28;20367;-58
2022/03/16 00:33:29;;;;;;;;;;;;;;;8.70;100.00;98498.19;5119653;28;19924;-59
2022/03/16 00:35:55;;;;;;;;;;;;;;;8.66;100.00;98498.63;5120583;28;20031;-60
2022/03/16 00:38:22;;;;;;;;;;;;;;;8.64;100.00;98499.94;5122864;28;19951;-59
2022/03/16 00:40:48;;;;;;;;;;;;;;;8.67;100.00;98516.25;5122414;28;19952;-59
2022/03/16 00:43:14;;;;;;;;;;;;;;;8.61;100.00;98511.88;5119520;28;19924;-61
2022/03/16 00:45:42;;;;;;;;;;;;;;;8.58;100.00;98514.19;5119241;28;19983;-60
2022/03/16 00:48:08;;;;;;;;;;;;;;;8.58;100.00;98520.31;5122038;28;19966;-58
2022/03/16 00:50:35;;;;;;;;;;;;;;;8.58;100.00;98509.66;5122712;28;19928;-61
2022/03/16 00:53:01;;;;;;;;;;;;;;;8.61;100.00;98514.53;5120319;28;19946;-59
2022/03/16 00:55:28;;;;;;;;;;;;;;;8.56;100.00;98509.09;5119431;28;19962;-59
2022/03/16 00:57:54;;;;;;;;;;;;;;;8.53;100.00;98506.09;5119966;28;20000;-59
2022/03/16 01:00:20;;;;;;;;;;;;;;;8.61;100.00;98506.53;5122617;28;20500;-59
2022/03/16 01:02:48;;;;;;;;;;;;;;;8.68;100.00;98503.75;5122210;28;19956;-59
2022/03/16 01:05:14;;;;;;;;;;;;;;;8.72;100.00;98512.06;5110823;28;19924;-59
2022/03/16 01:07:41;;;;;;;;;;;;;;;8.65;100.00;98515.69;5110496;28;19924;-59
2022/03/16 01:10:07;;;;;;;;;;;;;;;8.64;100.00;98516.72;5110161;28;19924;-60
2022/03/16 01:12:34;;;;;;;;;;;;;;;8.64;100.00;98519.38;5117204;28;19924;-60
2022/03/16 01:15:00;;;;;;;;;;;;;;;8.63;100.00;98522.28;5120452;28;19927;-59
2022/03/16 01:17:26;;;;;;;;;;;;;;;8.67;100.00;98523.41;5119136;28;19991;-60
2022/03/16 01:19:54;;;;;;;;;;;;;;;8.65;100.00;98515.69;5119658;28;20421;-60
2022/03/16 01:22:20;;;;;;;;;;;;;;;8.68;100.00;98515.22;5104295;28;19946;-60
2022/03/16 01:24:47;;;;;;;;;;;;;;;8.61;100.00;98519.84;5122276;28;19966;-59
2022/03/16 01:27:14;;;;;;;;;;;;;;;8.62;100.00;98526.81;5126068;28;19928;-61
2022/03/16 01:29:40;;;;;;;;;;;;;;;8.56;100.00;98518.94;5110284;28;19924;-60
2022/03/16 01:32:07;;;;;;;;;;;;;;;8.56;100.00;98526.94;5110220;28;19928;-59
2022/03/16 01:34:35;;;;;;;;;;;;;;;8.57;100.00;98521.34;5109867;28;19920;-60
2022/03/16 01:37:03;;;;;;;;;;;;;;;8.61;100.00;98517.19;5109812;28;19959;-60
2022/03/16 01:39:29;;;;;;;;;;;;;;;8.57;100.00;98520.56;5110016;28;19935;-60
2022/03/16 01:41:56;;;;;;;;;;;;;;;8.52;100.00;98523.91;5111050;28;19987;-59
2022/03/16 01:44:37;;;;;;;;;;;;;;;8.60;100.00;98523.53;5122037;28;20670;-58
2022/03/16 01:47:04;;;;;;;;;;;;;;;8.60;100.00;98528.88;5119818;28;19959;-59
2022/03/16 01:49:30;;;;;;;;;;;;;;;8.56;100.00;98532.25;5118705;28;19931;-59
2022/03/16 01:51:56;;;;;;;;;;;;;;;8.47;100.00;98534.47;5119793;28;19995;-60
2022/03/16 01:54:24;;;;;;;;;;;;;;;8.49;100.00;98532.38;5121797;28;19963;-60
2022/03/16 01:56:51;;;;;;;;;;;;;;;8.51;100.00;98540.94;5121490;28;20006;-60
2022/03/16 01:59:17;;;;;;;;;;;;;;;8.40;100.00;98535.63;5118217;28;19995;-60
2022/03/16 02:01:43;;;;;;;;;;;;;;;8.45;100.00;98533.88;5118342;28;19931;-60
2022/03/16 02:04:10;;;;;;;;;;;;;;;8.38;100.00;98537.72;5121141;28;19934;-59
2022/03/16 02:06:36;;;;;;;;;;;;;;;8.32;100.00;98546.63;5103930;28;20015;-59
2022/03/16 02:09:02;;;;;;;;;;;;;;;8.36;100.00;98545.94;5119477;28;19931;-60
2022/03/16 02:11:30;;;;;;;;;;;;;;;8.20;100.00;98541.28;5118175;28;19931;-60
2022/03/16 02:13:57;;;;;;;;;;;;;;;8.15;100.00;98551.81;5121248;28;19946;-60
2022/03/16 02:16:23;;;;;;;;;;;;;;;8.18;100.00;98546.03;5125277;28;19930;-60
2022/03/16 02:18:50;;;;;;;;;;;;;;;8.23;100.00;98551.47;5125030;28;20018;-60
2022/03/16 02:21:17;;;;;;;;;;;;;;;8.14;100.00;98558.16;5121876;28;19927;-60
2022/03/16 02:23:44;;;;;;;;;;;;;;;8.24;100.00;98560.25;5121873;28;19924;-60
2022/03/16 02:26:12;;;;;;;;;;;;;;;8.22;100.00;98563.16;5125183;28;19924;-60
2022/03/16 02:28:38;;;;;;;;;;;;;;;8.26;100.00;98561.66;5125304;28;19973;-60
2022/03/16 02:31:05;;;;;;;;;;;;;;;8.13;100.00;98553.91;5122753;28;19947;-60
2022/03/16 02:33:32;;;;;;;;;;;;;;;8.27;100.00;98560.59;5121465;28;19970;-60
2022/03/16 02:35:58;;;;;;;;;;;;;;;8.31;100.00;98559.13;5122714;28;19948;-60
2022/03/16 02:38:24;;;;;;;;;;;;;;;8.27;100.00;98571.25;5124986;28;19955;-60
2022/03/16 02:40:52;;;;;;;;;;;;;;;8.26;100.00;98563.50;5124199;28;20619;-60
2022/03/16 02:43:18;;;;;;;;;;;;;;;8.29;100.00;98563.88;5121746;28;19928;-61
2022/03/16 02:45:44;;;;;;;;;;;;;;;8.27;100.00;98571.25;5121367;28;19991;-61
2022/03/16 02:48:11;;;;;;;;;;;;;;;8.35;100.00;98573.59;5124357;28;19951;-59
2022/03/16 02:50:37;;;;;;;;;;;;;;;8.37;100.00;98578.69;5124707;28;19934;-59
2022/03/16 02:53:05;;;;;;;;;;;;;;;8.31;100.00;98585.75;5122328;28;19991;-60
2022/03/16 02:55:31;;;;;;;;;;;;;;;8.31;100.00;98583.09;5121170;28;19926;-59
2022/03/16 02:57:59;;;;;;;;;;;;;;;8.29;100.00;98601.16;5104423;28;19946;-60
2022/03/16 03:00:26;;;;;;;;;;;;;;;8.26;100.00;98590.94;5124684;28;19944;-60
2022/03/16 03:02:53;;;;;;;;;;;;;;;8.27;100.00;98591.72;5123859;28;19930;-61
2022/03/16 03:05:19;;;;;;;;;;;;;;;8.24;100.00;98600.16;5120891;28;20501;-60
2022/03/16 03:07:45;;;;;;;;;;;;;;;8.22;100.00;98608.38;5120916;28;20015;-59
2022/03/16 03:10:12;;;;;;;;;;;;;;;8.26;100.00;98608.75;5124179;28;19996;-60
2022/03/16 03:12:38;;;;;;;;;;;;;;;8.22;100.00;98605.72;5124929;28;19987;-59
2022/03/16 03:15:09;;;;;;;;;;;;;;;8.12;100.00;98610.81;5121823;28;19996;-59
2022/03/16 03:17:36;;;;;;;;;;;;;;;8.03;100.00;98622.81;5120783;28;19920;-60
2022/03/16 03:20:02;;;;;;;;;;;;;;;8.03;100.00;98618.31;5122487;28;19925;-59
2022/03/16 03:22:29;;;;;;;;;;;;;;;8.02;100.00;98622.00;5106220;28;19983;-59
2022/03/16 03:24:55;;;;;;;;;;;;;;;8.07;100.00;98614.16;5122499;28;19991;-59
2022/03/16 03:27:22;;;;;;;;;;;;;;;8.02;100.00;98623.84;5120655;28;19987;-60
2022/03/16 03:29:49;;;;;;;;;;;;;;;8.04;100.00;98627.09;5120934;28;19924;-59
2022/03/16 03:32:16;;;;;;;;;;;;;;;8.05;100.00;98626.88;5123961;28;19927;-59
2022/03/16 03:34:46;;;;;;;;;;;;;;;8.09;100.00;98637.88;5123870;28;19924;-61
2022/03/16 03:37:13;;;;;;;;;;;;;;;8.19;100.00;98637.31;5120228;28;19924;-59
2022/03/16 03:39:39;;;;;;;;;;;;;;;8.26;100.00;98640.69;5120097;28;19934;-59
2022/03/16 03:42:06;;;;;;;;;;;;;;;8.29;100.00;98638.41;5122493;28;19935;-60
2022/03/16 03:44:32;;;;;;;;;;;;;;;8.38;100.00;98642.34;5123682;28;19928;-60
2022/03/16 03:46:59;;;;;;;;;;;;;;;8.27;100.00;98647.59;5122003;28;19930;-60
2022/03/16 03:49:26;;;;;;;;;;;;;;;8.18;100.00;98652.44;5120017;28;19931;-60
2022/03/16 03:51:53;;;;;;;;;;;;;;;8.18;100.00;98648.97;5120620;28;19955;-60
2022/03/16 03:54:19;;;;;;;;;;;;;;;8.20;100.00;98658.34;5123336;28;20012;-60
2022/03/16 03:56:45;;;;;;;;;;;;;;;8.28;100.00;98658.06;5123369;28;19920;-60
2022/03/16 03:59:12;;;;;;;;;;;;;;;8.25;100.00;98663.81;5119912;28;19924;-60
2022/03/16 04:01:38;;;;;;;;;;;;;;;8.25;100.00;98653.16;5120037;28;19988;-60
2022/03/16 04:04:05;;;;;;;;;;;;;;;8.30;100.00;98660.47;5122198;28;19924;-60
2022/03/16 04:06:33;;;;;;;;;;;;;;;8.26;100.00;98665.44;5123587;28;19992;-59
2022/03/16 04:08:59;;;;;;;;;;;;;;;8.36;100.00;98670.19;5121660;28;19971;-60
2022/03/16 04:11:26;;;;;;;;;;;;;;;8.24;100.00;98680.81;5119918;28;19927;-60
2022/03/16 04:13:52;;;;;;;;;;;;;;;8.25;100.00;98684.28;5120688;28;19924;-59
2022/03/16 04:16:19;;;;;;;;;;;;;;;8.09;100.00;98681.25;5123351;28;19945;-59
2022/03/16 04:18:45;;;;;;;;;;;;;;;8.12;100.00;98686.09;5123450;28;20526;-59
2022/03/16 04:21:11;;;;;;;;;;;;;;;8.16;100.00;98691.78;5120104;28;19924;-61
2022/03/16 04:23:39;;;;;;;;;;;;;;;8.17;100.00;98692.59;5119948;28;19924;-59
2022/03/16 04:26:05;;;;;;;;;;;;;;;8.20;100.00;98689.50;5122105;28;20301;-60
2022/03/16 04:28:32;;;;;;;;;;;;;;;8.27;100.00;98696.31;5123035;28;19983;-59
2022/03/16 04:30:59;;;;;;;;;;;;;;;8.15;100.00;98693.63;5121320;28;19991;-59
2022/03/16 04:33:26;;;;;;;;;;;;;;;8.07;100.00;98691.31;5119374;28;19935;-59
2022/03/16 04:35:52;;;;;;;;;;;;;;;8.09;100.00;98691.06;5119700;28;19993;-59
2022/03/16 04:38:19;;;;;;;;;;;;;;;8.16;100.00;98686.47;5121773;28;19951;-60
2022/03/16 04:40:47;;;;;;;;;;;;;;;8.19;100.00;98696.66;5121979;28;19924;-60
2022/03/16 04:43:13;;;;;;;;;;;;;;;8.18;100.00;98699.53;5119523;28;19987;-59
2022/03/16 04:45:39;;;;;;;;;;;;;;;8.22;100.00;98698.84;5119161;28;20675;-60
2022/03/16 04:48:07;;;;;;;;;;;;;;;8.22;100.00;98704.19;5121517;28;19927;-59
2022/03/16 04:50:33;;;;;;;;;;;;;;;8.18;100.00;98700.34;5122420;28;19923;-59
2022/03/16 04:53:00;;;;;;;;;;;;;;;8.26;100.00;98709.84;5120707;28;20031;-60
2022/03/16 04:55:26;;;;;;;;;;;;;;;8.22;100.00;98706.84;5118828;28;19983;-60
2022/03/16 04:57:54;;;;;;;;;;;;;;;8.18;100.00;98715.50;5119736;28;19951;-59
2022/03/16 05:00:20;;;;;;;;;;;;;;;8.31;100.00;98731.28;5122873;28;19995;-59
2022/03/16 05:02:46;;;;;;;;;;;;;;;8.26;100.00;98737.28;5122805;28;19950;-59
2022/03/16 05:05:13;;;;;;;;;;;;;;;8.30;100.00;98733.16;5119025;28;19954;-59
2022/03/16 05:07:40;;;;;;;;;;;;;;;7.98;100.00;98737.09;5118872;28;20474;-59
2022/03/16 05:10:06;;;;;;;;;;;;;;;7.91;100.00;98736.34;5121069;28;19939;-59
2022/03/16 05:12:39;;;;;;;;;;;;;;;7.85;100.00;98748.72;5122687;28;19919;-59
2022/03/16 05:15:08;;;;;;;;;;;;;;;7.98;100.00;98753.81;5119858;28;20800;-59
2022/03/16 05:17:35;;;;;;;;;;;;;;;8.10;100.00;98745.91;5118811;28;19924;-59
2022/03/16 05:20:01;;;;;;;;;;;;;;;8.18;100.00;98758.88;5120538;28;19962;-60
2022/03/16 05:22:27;;;;;;;;;;;;;;;8.24;100.00;98759.81;5104107;28;19932;-59
2022/03/16 05:24:54;;;;;;;;;;;;;;;8.19;100.00;98765.84;5121260;28;19963;-58
2022/03/16 05:27:20;;;;;;;;;;;;;;;8.19;100.00;98765.84;5118486;28;19963;-59
2022/03/16 05:29:47;;;;;;;;;;;;;;;8.28;100.00;98753.84;5118807;28;19919;-59
2022/03/16 05:32:15;;;;;;;;;;;;;;;8.25;100.00;98764.94;5134331;27;20011;-60
2022/03/16 05:34:41;;;;;;;;;;;;;;;8.25;100.00;98764.09;5118531;28;20010;-60
2022/03/16 05:37:07;;;;;;;;;;;;;;;8.38;100.00;98759.44;5121052;28;19928;-60
2022/03/16 05:39:34;;;;;;;;;;;;;;;8.36;100.00;98761.50;5122110;28;19966;-59
2022/03/16 05:42:01;;;;;;;;;;;;;;;8.42;100.00;98771.25;5137556;27;19927;-59
2022/03/16 05:44:27;;;;;;;;;;;;;;;8.31;100.00;98780.00;5121994;28;19945;-60
2022/03/16 05:46:54;;;;;;;;;;;;;;;8.30;100.00;98766.91;5121024;28;20014;-61
2022/03/16 05:49:25;;;;;;;;;;;;;;;8.30;100.00;98773.06;5120506;27;20711;-60
2022/03/16 05:51:51;;;;;;;;;;;;;;;8.34;100.00;98773.41;5122663;28;19996;-60
2022/03/16 05:54:18;;;;;;;;;;;;;;;8.32;100.00;98781.66;5125807;28;19970;-59
2022/03/16 05:56:44;;;;;;;;;;;;;;;8.40;100.00;98781.31;5125874;28;19963;-59
2022/03/16 05:59:10;;;;;;;;;;;;;;;8.37;100.00;98781.78;5122589;28;19928;-60
2022/03/16 06:01:37;;;;;;;;;;;;;;;8.42;100.00;98787.22;5122335;28;19951;-60
2022/03/16 06:04:03;;;;;;;;;;;;;;;8.39;100.00;98782.34;5124306;28;19924;-60
2022/03/16 06:06:31;;;;;;;;;;;;;;;8.42;100.00;98783.72;5125645;28;19934;-59
2022/03/16 06:08:58;;;;;;;;;;;;;;;8.38;100.00;98777.25;5124297;28;19923;-61
2022/03/16 06:11:24;;;;;;;;;;;;;;;8.38;100.00;98782.59;5103741;28;19928;-61
2022/03/16 06:13:50;;;;;;;;;;;;;;;8.31;100.00;98784.53;5122490;28;19958;-60
2022/03/16 06:16:17;;;;;;;;;;;;;;;8.40;100.00;98786.63;5125195;28;19994;-60
2022/03/16 06:18:43;;;;;;;;;;;;;;;8.43;100.00;98783.53;5125305;28;19924;-60
2022/03/16 06:21:09;;;;;;;;;;;;;;;8.54;100.00;98788.03;5122087;28;19987;-60
2022/03/16 06:23:37;;;;;;;;;;;;;;;8.58;100.00;98797.22;5121595;28;19920;-61
2022/03/16 06:26:05;;;;;;;;;;;;;;;8.63;100.00;98800.00;5123479;28;19924;-60
2022/03/16 06:28:31;;;;;;;;;;;;;;;8.65;100.00;98797.09;5107159;28;19928;-61
2022/03/16 06:30:57;;;;;;;;;;;;;;;8.59;100.00;98798.84;5124173;28;19987;-61
2022/03/16 06:33:27;;;;;;;;;;;;;;;8.61;100.00;98803.91;5121714;28;20430;-59
2022/03/16 06:35:53;;;;;;;;;;;;;;;8.61;100.00;98799.41;5122169;28;19990;-61
2022/03/16 06:38:19;;;;;;;;;;;;;;;8.62;100.00;98809.03;5124805;28;19923;-60
2022/03/16 06:40:47;;;;;;;;;;;;;;;8.83;100.00;98804.19;5124899;28;20594;-60
2022/03/16 06:43:13;;;;;;;;;;;;;;;8.83;100.00;98807.66;5121809;28;19951;-61
2022/03/16 06:45:40;;;;;;;;;;;;;;;8.90;100.00;98810.22;5121613;28;19992;-60
2022/03/16 06:48:06;;;;;;;;;;;;;;;8.76;100.00;98809.63;5124075;28;19952;-60
2022/03/16 06:50:32;;;;;;;;;;;;;;;8.83;100.00;98814.84;5125206;28;19924;-60
2022/03/16 06:52:59;;;;;;;;;;;;;;;9.04;100.00;98816.94;5123399;28;19920;-60
2022/03/16 06:55:26;;;;;;;;;;;;;;;8.77;100.00;98816.59;5121490;28;19925;-60
2022/03/16 06:57:54;;;;;;;;;;;;;;;9.09;100.00;98825.09;5122002;28;19928;-60
2022/03/16 07:00:20;;;;;;;;;;;;;;;9.04;100.00;98823.09;5123952;27;20316;-61
2022/03/16 07:02:51;;;;;;;;;;;;;;;9.13;100.00;98816.38;5124978;28;19930;-61
2022/03/16 07:05:17;;;;;;;;;;;;;;;9.15;100.00;98829.50;5121166;28;19924;-60
2022/03/16 07:07:43;;;;;;;;;;;;;;;9.24;100.00;98825.44;5121298;28;19924;-60
2022/03/16 07:10:10;;;;;;;;;;;;;;;9.11;100.00;98820.31;5124186;28;19955;-60
2022/03/16 07:12:36;;;;;;;;;;;;;;;8.93;100.00;98821.25;5125305;28;19919;-60
2022/03/16 07:15:04;;;;;;;;;;;;;;;8.80;100.00;98823.31;5122661;28;19927;-65
2022/03/16 07:17:31;;;;;;;;;;;;;;;8.87;100.00;98829.34;5120968;28;19970;-60
2022/03/16 07:19:57;;;;;;;;;;;;;;;8.83;100.00;98828.97;5121966;28;20008;-60
2022/03/16 07:22:23;;;;;;;;;;;;;;;8.70;100.00;98828.41;5124254;28;19994;-58
2022/03/16 07:24:50;;;;;;;;;;;;;;;8.54;100.00;98829.84;5124299;28;19956;-60
2022/03/16 07:27:16;;;;;;;;;;;;;;;8.57;100.00;98837.41;5120658;28;19920;-60
2022/03/16 07:29:43;;;;;;;;;;;;;;;8.74;100.00;98829.53;5120899;28;19924;-60
2022/03/16 07:32:10;;;;;;;;;;;;;;;8.60;100.00;98831.63;5105478;28;19928;-60
2022/03/16 07:34:37;;;;;;;;;;;;;;;8.70;100.00;98826.53;5124487;28;19931;-60
2022/03/16 07:37:04;;;;;;;;;;;;;;;8.73;100.00;98828.72;5122021;28;19924;-60
2022/03/16 07:39:30;;;;;;;;;;;;;;;8.86;100.00;98836.50;5120534;28;19963;-59
2022/03/16 07:41:56;;;;;;;;;;;;;;;8.93;100.00;98821.25;5121965;28;19962;-59
2022/03/16 07:44:23;;;;;;;;;;;;;;;8.87;100.00;98829.34;5123997;28;19951;-60
2022/03/16 07:46:49;;;;;;;;;;;;;;;9.06;100.00;98821.03;5123903;28;19924;-60
2022/03/16 07:49:17;;;;;;;;;;;;;;;8.94;100.00;98830.88;5120171;28;19930;-60
2022/03/16 07:51:43;;;;;;;;;;;;;;;8.80;100.00;98831.28;5120459;28;19952;-59
2022/03/16 07:54:09;;;;;;;;;;;;;;;8.91;100.00;98833.97;5123210;28;19958;-60
2022/03/16 07:56:36;;;;;;;;;;;;;;;8.93;100.00;98837.22;5123709;28;20672;-60
2022/03/16 07:59:02;;;;;;;;;;;;;;;8.87;100.00;98837.34;5122028;28;20014;-60
2022/03/16 08:01:28;;;;;;;;;;;;;;;8.95;100.00;98836.97;5120177;28;19930;-61
2022/03/16 08:03:55;;;;;;;;;;;;;;;9.01;100.00;98833.41;5120819;28;19924;-60
2022/03/16 08:06:22;;;;;;;;;;;;;;;8.97;100.00;98841.06;5123532;28;19919;-60
2022/03/16 08:08:49;;;;;;;;;;;;;;;9.06;100.00;98841.53;5123470;28;19924;-60
2022/03/16 08:11:15;;;;;;;;;;;;;;;9.09;100.00;98841.88;5119769;28;19955;-60
2022/03/16 08:13:41;;;;;;;;;;;;;;;9.07;100.00;98841.28;5120313;28;19920;-60
2022/03/16 08:16:08;;;;;;;;;;;;;;;9.05;100.00;98846.03;5122380;28;20055;-60
2022/03/16 08:18:36;;;;;;;;;;;;;;;9.15;100.00;98858.81;5123366;28;19923;-61
2022/03/16 08:21:02;;;;;;;;;;;;;;;9.10;100.00;98850.66;5121354;28;19956;-60
2022/03/16 08:23:30;;;;;;;;;;;;;;;9.23;100.00;98858.44;5119420;28;19924;-60
2022/03/16 08:25:57;;;;;;;;;;;;;;;9.36;100.00;98858.22;5120463;28;19979;-60
2022/03/16 08:28:23;;;;;;;;;;;;;;;9.19;100.00;98851.97;5122996;28;19924;-60
2022/03/16 08:30:50;;;;;;;;;;;;;;;9.25;100.00;98851.06;5122706;28;19947;-60
2022/03/16 08:33:18;;;;;;;;;;;;;;;9.06;100.00;98847.69;5119233;28;19924;-59
2022/03/16 08:35:44;;;;;;;;;;;;;;;9.46;100.00;98860.31;5101214;28;19924;-59
2022/03/16 08:38:10;;;;;;;;;;;;;;;9.59;100.00;98858.22;5122474;28;19994;-59
2022/03/16 08:40:38;;;;;;;;;;;;;;;9.66;100.00;98863.41;5122512;28;19920;-59
2022/03/16 08:43:04;;;;;;;;;;;;;;;9.82;100.00;98861.91;5120863;28;19955;-59
2022/03/16 08:45:31;;;;;;;;;;;;;;;9.58;100.00;98859.28;5119323;28;19955;-59
2022/03/16 08:47:57;;;;;;;;;;;;;;;9.77;100.00;98858.09;5120056;28;19958;-59
2022/03/16 08:50:24;;;;;;;;;;;;;;;9.90;100.00;98864.22;5122546;28;19987;-59
2022/03/16 08:52:50;;;;;;;;;;;;;;;9.88;100.00;98860.94;5122591;28;19924;-60
2022/03/16 08:55:16;;;;;;;;;;;;;;;9.79;100.00;98863.19;5119319;28;19952;-59
2022/03/16 08:57:44;;;;;;;;;;;;;;;9.83;100.00;98866.19;5118974;28;20009;-60
2022/03/16 09:00:15;;;;;;;;;;;;;;;9.88;100.00;98861.78;5122250;28;19951;-60
2022/03/16 09:02:41;;;;;;;;;;;;;;;9.91;100.00;98863.97;5122249;28;19924;-60
2022/03/16 09:05:08;;;;;;;;;;;;;;;9.82;100.00;98877.91;5119704;28;19923;-60
2022/03/16 09:07:34;;;;;;;;;;;;;;;9.78;100.00;98877.56;5118968;28;19999;-60
2022/03/16 09:10:02;;;;;;;;;;;;;;;10.10;100.00;98870.78;5120628;28;20634;-60
2022/03/16 09:12:28;;;;;;;;;;;;;;;10.31;100.00;98877.34;5117008;28;19924;-60
2022/03/16 09:14:56;;;;;;;;;;;;;;;10.29;100.00;98879.47;5119060;28;19931;-59
2022/03/16 09:17:22;;;;;;;;;;;;;;;10.27;100.00;98873.56;5119002;28;19991;-60
2022/03/16 09:19:50;;;;;;;;;;;;;;;10.22;100.00;98871.59;5118864;28;19924;-59
2022/03/16 09:22:16;;;;;;;;;;;;;;;10.24;100.00;98882.81;5118904;28;19924;-60
2022/03/16 09:24:43;;;;;;;;;;;;;;;10.28;100.00;98880.50;5122012;28;19958;-60
2022/03/16 09:27:09;;;;;;;;;;;;;;;10.13;100.00;98881.00;5125925;28;20473;-60
2022/03/16 09:29:35;;;;;;;;;;;;;;;10.12;100.00;98883.91;5126579;28;20021;-60
2022/03/16 09:32:04;;;;;;;;;;;;;;;10.20;100.00;98880.88;5124592;28;19999;-60
2022/03/16 09:34:30;;;;;;;;;;;;;;;10.24;100.00;98880.16;5123208;28;19946;-59
2022/03/16 09:36:57;;;;;;;;;;;;;;;10.38;100.00;98880.69;5124120;28;19934;-61
2022/03/16 09:39:23;;;;;;;;;;;;;;;10.20;100.00;98880.88;5126576;28;20208;-60
2022/03/16 09:41:50;;;;;;;;;;;;;;;10.57;100.00;98884.00;5126234;28;19924;-59
2022/03/16 09:44:17;;;;;;;;;;;;;;;10.53;100.00;98883.66;5126331;28;19926;-60
2022/03/16 09:46:45;;;;;;;;;;;;;;;10.60;100.00;98889.66;5126422;28;19951;-60
2022/03/16 09:49:14;;;;;;;;;;;;;;;9.88;100.00;98882.31;5123230;28;19925;-61
2022/03/16 09:51:41;;;;;;;;;;;;;;;10.61;100.00;98882.47;5123123;28;19988;-60
2022/03/16 09:54:08;;;;;;;;;;;;;;;10.60;100.00;98875.50;5107462;28;19924;-60
2022/03/16 09:56:34;;;;;;;;;;;;;;;10.56;100.00;98877.03;5126211;28;19930;-59
2022/03/16 09:59:01;;;;;;;;;;;;;;;10.73;100.00;98885.91;5124662;28;19995;-60
2022/03/16 10:01:27;;;;;;;;;;;;;;;10.50;100.00;98881.47;5122498;28;19928;-60
2022/03/16 10:03:54;;;;;;;;;;;;;;;10.60;100.00;98887.00;5123355;28;19999;-60
2022/03/16 10:06:24;;;;;;;;;;;;;;;10.55;100.00;98889.56;5126107;28;20062;-60
2022/03/16 10:14:17;;;;;;;;;;;;;;;10.59;100.00;98889.91;5112598;28;19983;-59
2022/03/16 10:19:44;;;;;;;;;;;;;;;11.07;100.00;98898.25;5114103;28;19924;-60
2022/03/16 10:22:11;;;;;;;;;;;;;;;10.28;100.00;98883.16;5113727;28;19956;-59
2022/03/16 10:24:42;;;;;;;;;;;;;;;10.71;100.00;98879.97;5095885;28;19951;-60
2022/03/16 10:27:08;;;;;;;;;;;;;;;10.92;100.00;98875.81;5113522;28;20003;-60
2022/03/16 10:29:35;;;;;;;;;;;;;;;10.92;100.00;98875.81;5113701;28;20434;-60
2022/03/16 10:32:02;;;;;;;;;;;;;;;10.71;100.00;98879.97;5113795;28;19920;-61
2022/03/16 10:34:29;;;;;;;;;;;;;;;10.89;100.00;98876.28;5113630;28;20318;-59
2022/03/16 10:36:59;;;;;;;;;;;;;;;10.88;100.00;98875.47;5113823;28;19932;-60
2022/03/16 10:39:34;;;;;;;;;;;;;;;11.27;100.00;98871.03;5113581;28;19988;-60
2022/03/16 10:47:50;;;;;;;;;;;;;;;11.07;100.00;98874.19;5085101;28;19983;-60
2022/03/16 10:50:17;;;;;;;;;;;;;;;11.06;100.00;98871.75;5121817;28;20000;-61
2022/03/16 10:52:44;;;;;;;;;;;;;;;11.15;100.00;98881.00;5121641;28;20007;-60
2022/03/16 10:55:13;;;;;;;;;;;;;;;11.09;100.00;98881.97;5124784;28;20056;-60
2022/03/16 10:57:39;;;;;;;;;;;;;;;11.31;100.00;98872.97;5125037;28;19930;-60
2022/03/16 11:00:06;;;;;;;;;;;;;;;11.46;100.00;98869.72;5122866;28;19958;-59
2022/03/16 11:02:34;;;;;;;;;;;;;;;10.75;100.00;98865.91;5121654;28;20111;-59
2022/03/16 11:05:01;;;;;;;;;;;;;;;11.46;100.00;98863.56;5122850;28;19924;-60
2022/03/16 11:07:27;;;;;;;;;;;;;;;11.62;100.00;98855.50;5125205;28;19931;-60
2022/03/16 11:09:54;;;;;;;;;;;;;;;11.83;100.00;98849.41;5124329;28;19936;-61
2022/03/16 11:15:07;;;;;;;;;;;;;;;11.47;100.00;98839.25;5124640;28;19931;-60
2022/03/16 11:17:35;;;;;;;;;;;;;;;11.75;100.00;98841.00;5124528;28;20413;-60
2022/03/16 11:20:03;;;;;;;;;;;;;;;11.99;100.00;98841.56;5122754;28;19923;-60
2022/03/16 11:22:33;;;;;;;;;;;;;;;12.08;100.00;98840.06;5121053;28;19970;-60
2022/03/16 11:25:01;;;;;;;;;;;;;;;11.26;100.00;98837.34;5122520;28;19931;-60
2022/03/16 11:27:40;;;;;;;;;;;;;;;11.55;100.00;98830.78;5124719;28;19955;-60
2022/03/16 11:30:10;;;;;;;;;;;;;;;12.33;100.00;98830.47;5122008;28;19919;-61
2022/03/16 11:32:38;;;;;;;;;;;;;;;12.15;100.00;98825.44;5120907;28;19920;-61
2022/03/16 11:35:07;;;;;;;;;;;;;;;12.40;100.00;98822.22;5122666;28;19999;-60
2022/03/16 11:37:35;;;;;;;;;;;;;;;12.33;100.00;98826.97;5124061;28;20276;-60
2022/03/16 11:40:09;;;;;;;;;;;;;;;12.43;100.00;98822.53;5122114;28;20597;-60
2022/03/16 11:42:37;;;;;;;;;;;;;;;12.35;100.00;98820.28;5126649;28;19957;-60
2022/03/16 11:45:19;;;;;;;;;;;;;;;12.21;100.00;98821.75;5121674;28;19924;-60
2022/03/16 11:47:46;;;;;;;;;;;;;;;11.73;100.00;98819.81;5118798;28;19924;-60
2022/03/16 11:50:19;;;;;;;;;;;;;;;12.45;100.00;98817.72;5123246;28;19999;-60
2022/03/16 11:52:58;;;;;;;;;;;;;;;12.24;100.00;98821.25;5123500;28;20474;-60
2022/03/16 11:55:40;;;;;;;;;;;;;;;12.22;100.00;98811.88;5120021;28;19928;-60
2022/03/16 11:58:17;;;;;;;;;;;;;;;12.03;100.00;98810.56;5122286;28;19924;-60
2022/03/16 12:00:44;;;;;;;;;;;;;;;12.11;100.00;98805.56;5123571;28;19928;-60
2022/03/16 12:03:20;;;;;;;;;;;;;;;12.07;100.00;98807.13;5120427;28;19959;-60
2022/03/16 12:05:57;;;;;;;;;;;;;;;12.04;100.00;98796.13;5119866;28;19924;-60
2022/03/16 12:08:24;;;;;;;;;;;;;;;12.30;100.00;98785.44;5119855;28;19924;-60
2022/03/16 12:12:50;;;;;;;;;;;;;;;12.37;100.00;98791.41;5120210;28;19987;-60
2022/03/16 12:13:43;;;;;;;;;;;;;;;12.34;100.00;98780.38;5125146;28;19924;-59
2022/03/16 12:16:10;;;;;;;;;;;;;;;12.34;100.00;98789.22;5122754;28;20026;-59
2022/03/16 12:18:39;;;;;;;;;;;;;;;12.18;100.00;98783.97;5123133;28;19924;-59
2022/03/16 12:21:08;;;;;;;;;;;;;;;12.44;100.00;98777.78;5120813;28;19924;-60
2022/03/16 12:23:43;;;;;;;;;;;;;;;12.38;100.00;98776.94;5119809;28;19924;-60
2022/03/16 12:26:09;;;;;;;;;;;;;;;12.46;100.00;98770.31;5122345;28;19940;-60
2022/03/16 12:31:21;;;;;;;;;;;;;;;12.87;100.00;98761.53;5135783;27;19923;-60
2022/03/16 12:33:50;;;;;;;;;;;;;;;12.70;100.00;98763.56;5119768;28;19924;-60
2022/03/16 12:36:18;;;;;;;;;;;;;;;12.68;100.00;98768.38;5111188;28;19920;-60
2022/03/16 12:38:46;;;;;;;;;;;;;;;12.65;100.00;98770.75;5111085;28;19935;-60
2022/03/16 12:43:58;;;;;;;;;;;;;;;12.41;100.00;98764.88;5120989;28;20010;-60
2022/03/16 12:46:27;;;;;;;;;;;;;;;12.41;100.00;98768.38;5122906;28;19947;-61
2022/03/16 12:48:55;;;;;;;;;;;;;;;12.51;100.00;98770.34;5122236;28;19923;-60
2022/03/16 12:51:33;;;;;;;;;;;;;;;12.82;100.00;98772.22;5119356;28;19927;-60
2022/03/16 12:54:00;;;;;;;;;;;;;;;12.67;100.00;98764.06;5120557;28;19955;-60
2022/03/16 12:56:26;;;;;;;;;;;;;;;12.50;100.00;98763.41;5122688;28;19973;-61
2022/03/16 12:58:53;;;;;;;;;;;;;;;12.65;100.00;98760.84;5121305;28;19924;-61
2022/03/16 13:01:20;;;;;;;;;;;;;;;12.82;100.00;98760.69;5119076;28;19951;-61
2022/03/16 13:03:48;;;;;;;;;;;;;;;12.75;100.00;98755.53;5119000;28;19949;-60
2022/03/16 13:06:16;;;;;;;;;;;;;;;12.93;100.00;98757.03;5100754;28;19924;-61